sensor_id;sensor_type;location;lat;lon;timestamp;P1;durP1;ratioP1;P2;durP2;ratioP2
12232;SDS011;6179;51.748;8.728;2023-08-30T00:01:30;3.53;;;2.20;;
12232;SDS011;6179;51.748;8.728;2023-08-30T00:07:30;31.47;;;3.57;;
12232;SDS011;6179;51.748;8.728;2023-08-30T00:13:31;3.13;;;2.50;;
12232;SDS011;6179;51.748;8.728;2023-08-30T00:19:33;3.67;;;1.97;;
12232;SDS011;6179;51.748;8.728;2023-08-30T00:25:33;3.87;;;2.80;;
12232;SDS011;6179;51.748;8.728;2023-08-30T00:31:37;11.60;;;2.83;;
12232;SDS011;6179;51.748;8.728;2023-08-30T00:37:38;5.17;;;2.73;;
12232;SDS011;6179;51.748;8.728;2023-08-30T00:43:39;3.17;;;2.67;;
12232;SDS011;6179;51.748;8.728;2023-08-30T00:49:39;2.60;;;2.07;;
12232;SDS011;6179;51.748;8.728;2023-08-30T00:55:41;4.23;;;3.00;;
12232;SDS011;6179;51.748;8.728;2023-08-30T01:01:43;5.30;;;2.67;;
12232;SDS011;6179;51.748;8.728;2023-08-30T01:07:44;6.07;;;2.60;;
12232;SDS011;6179;51.748;8.728;2023-08-30T01:13:50;3.40;;;3.10;;
12232;SDS011;6179;51.748;8.728;2023-08-30T01:19:59;7.50;;;3.57;;
12232;SDS011;6179;51.748;8.728;2023-08-30T01:32:44;3.33;;;3.07;;
12232;SDS011;6179;51.748;8.728;2023-08-30T01:38:46;14.77;;;2.30;;
12232;SDS011;6179;51.748;8.728;2023-08-30T01:44:48;3.10;;;2.30;;
12232;SDS011;6179;51.748;8.728;2023-08-30T01:50:54;6.80;;;2.40;;
12232;SDS011;6179;51.748;8.728;2023-08-30T01:56:58;6.83;;;2.40;;
12232;SDS011;6179;51.748;8.728;2023-08-30T02:02:59;4.77;;;2.40;;
12232;SDS011;6179;51.748;8.728;2023-08-30T02:15:25;4.20;;;2.03;;
12232;SDS011;6179;51.748;8.728;2023-08-30T02:21:29;2.00;;;1.90;;
12232;SDS011;6179;51.748;8.728;2023-08-30T02:27:30;4.27;;;3.77;;
12232;SDS011;6179;51.748;8.728;2023-08-30T02:33:32;4.00;;;2.43;;
12232;SDS011;6179;51.748;8.728;2023-08-30T02:39:33;10.63;;;3.20;;
12232;SDS011;6179;51.748;8.728;2023-08-30T02:45:33;4.70;;;4.07;;
12232;SDS011;6179;51.748;8.728;2023-08-30T02:51:34;11.60;;;2.60;;
12232;SDS011;6179;51.748;8.728;2023-08-30T02:57:35;4.33;;;3.43;;
12232;SDS011;6179;51.748;8.728;2023-08-30T03:03:36;5.60;;;3.37;;
12232;SDS011;6179;51.748;8.728;2023-08-30T03:09:37;6.27;;;3.10;;
12232;SDS011;6179;51.748;8.728;2023-08-30T03:15:39;4.40;;;3.53;;
12232;SDS011;6179;51.748;8.728;2023-08-30T03:21:39;5.93;;;3.70;;
12232;SDS011;6179;51.748;8.728;2023-08-30T03:27:40;7.10;;;2.90;;
12232;SDS011;6179;51.748;8.728;2023-08-30T03:33:41;4.50;;;3.27;;
12232;SDS011;6179;51.748;8.728;2023-08-30T03:39:42;4.10;;;3.03;;
12232;SDS011;6179;51.748;8.728;2023-08-30T03:45:43;3.47;;;3.17;;
12232;SDS011;6179;51.748;8.728;2023-08-30T03:51:44;6.13;;;3.40;;
12232;SDS011;6179;51.748;8.728;2023-08-30T03:57:45;3.27;;;2.50;;
12232;SDS011;6179;51.748;8.728;2023-08-30T04:03:45;9.73;;;4.60;;
12232;SDS011;6179;51.748;8.728;2023-08-30T04:09:46;9.63;;;3.60;;
12232;SDS011;6179;51.748;8.728;2023-08-30T04:15:47;3.30;;;2.70;;
12232;SDS011;6179;51.748;8.728;2023-08-30T04:21:48;7.03;;;3.77;;
12232;SDS011;6179;51.748;8.728;2023-08-30T04:27:49;17.33;;;4.13;;
12232;SDS011;6179;51.748;8.728;2023-08-30T04:33:50;5.40;;;2.43;;
12232;SDS011;6179;51.748;8.728;2023-08-30T04:39:52;5.40;;;3.60;;
12232;SDS011;6179;51.748;8.728;2023-08-30T04:45:53;6.20;;;3.47;;
12232;SDS011;6179;51.748;8.728;2023-08-30T04:51:54;8.10;;;4.30;;
12232;SDS011;6179;51.748;8.728;2023-08-30T04:57:55;8.30;;;4.60;;
12232;SDS011;6179;51.748;8.728;2023-08-30T05:03:55;14.77;;;5.60;;
12232;SDS011;6179;51.748;8.728;2023-08-30T05:09:56;13.23;;;3.50;;
12232;SDS011;6179;51.748;8.728;2023-08-30T05:15:57;7.53;;;4.73;;
12232;SDS011;6179;51.748;8.728;2023-08-30T05:21:58;9.07;;;4.80;;
12232;SDS011;6179;51.748;8.728;2023-08-30T05:27:58;14.03;;;5.23;;
12232;SDS011;6179;51.748;8.728;2023-08-30T05:33:59;7.70;;;4.57;;
12232;SDS011;6179;51.748;8.728;2023-08-30T05:40:00;6.33;;;4.67;;
12232;SDS011;6179;51.748;8.728;2023-08-30T05:46:01;12.73;;;5.83;;
12232;SDS011;6179;51.748;8.728;2023-08-30T05:52:02;7.00;;;5.20;;
12232;SDS011;6179;51.748;8.728;2023-08-30T05:58:03;9.47;;;6.07;;
12232;SDS011;6179;51.748;8.728;2023-08-30T06:04:04;13.43;;;6.93;;
12232;SDS011;6179;51.748;8.728;2023-08-30T06:10:05;7.60;;;5.70;;
12232;SDS011;6179;51.748;8.728;2023-08-30T06:16:06;9.50;;;6.70;;
12232;SDS011;6179;51.748;8.728;2023-08-30T06:22:07;8.90;;;5.03;;
12232;SDS011;6179;51.748;8.728;2023-08-30T06:28:08;12.23;;;7.00;;
12232;SDS011;6179;51.748;8.728;2023-08-30T06:34:09;11.87;;;6.43;;
12232;SDS011;6179;51.748;8.728;2023-08-30T06:40:10;24.13;;;6.30;;
12232;SDS011;6179;51.748;8.728;2023-08-30T06:46:11;8.87;;;6.20;;
12232;SDS011;6179;51.748;8.728;2023-08-30T06:52:12;10.07;;;7.07;;
12232;SDS011;6179;51.748;8.728;2023-08-30T06:58:12;17.10;;;6.97;;
12232;SDS011;6179;51.748;8.728;2023-08-30T07:04:13;15.40;;;8.00;;
12232;SDS011;6179;51.748;8.728;2023-08-30T07:10:14;15.03;;;8.63;;
12232;SDS011;6179;51.748;8.728;2023-08-30T07:16:14;11.30;;;7.43;;
12232;SDS011;6179;51.748;8.728;2023-08-30T07:22:15;19.33;;;7.30;;
12232;SDS011;6179;51.748;8.728;2023-08-30T07:28:16;20.70;;;10.10;;
12232;SDS011;6179;51.748;8.728;2023-08-30T07:34:17;14.40;;;8.60;;
12232;SDS011;6179;51.748;8.728;2023-08-30T07:40:18;19.60;;;10.20;;
12232;SDS011;6179;51.748;8.728;2023-08-30T07:46:19;16.60;;;9.87;;
12232;SDS011;6179;51.748;8.728;2023-08-30T07:52:20;26.30;;;10.47;;
12232;SDS011;6179;51.748;8.728;2023-08-30T07:58:21;25.93;;;12.90;;
12232;SDS011;6179;51.748;8.728;2023-08-30T08:04:23;27.30;;;12.87;;
12232;SDS011;6179;51.748;8.728;2023-08-30T08:10:23;18.83;;;11.90;;
12232;SDS011;6179;51.748;8.728;2023-08-30T08:16:24;19.43;;;10.27;;
12232;SDS011;6179;51.748;8.728;2023-08-30T08:22:25;20.10;;;11.03;;
12232;SDS011;6179;51.748;8.728;2023-08-30T08:28:26;22.40;;;11.07;;
12232;SDS011;6179;51.748;8.728;2023-08-30T08:34:27;23.63;;;9.60;;
12232;SDS011;6179;51.748;8.728;2023-08-30T08:40:28;21.67;;;11.83;;
12232;SDS011;6179;51.748;8.728;2023-08-30T08:46:29;26.83;;;12.23;;
12232;SDS011;6179;51.748;8.728;2023-08-30T08:52:32;17.70;;;9.90;;
12232;SDS011;6179;51.748;8.728;2023-08-30T08:58:33;17.30;;;7.43;;
12232;SDS011;6179;51.748;8.728;2023-08-30T09:04:37;13.00;;;7.00;;
12232;SDS011;6179;51.748;8.728;2023-08-30T09:10:39;8.00;;;4.63;;
12232;SDS011;6179;51.748;8.728;2023-08-30T09:16:41;4.77;;;3.70;;
12232;SDS011;6179;51.748;8.728;2023-08-30T09:22:42;7.30;;;4.67;;
12232;SDS011;6179;51.748;8.728;2023-08-30T09:28:43;5.00;;;4.50;;
12232;SDS011;6179;51.748;8.728;2023-08-30T09:34:47;7.13;;;4.50;;
12232;SDS011;6179;51.748;8.728;2023-08-30T09:40:48;7.30;;;4.30;;
12232;SDS011;6179;51.748;8.728;2023-08-30T09:46:49;5.03;;;3.07;;
12232;SDS011;6179;51.748;8.728;2023-08-30T09:52:52;3.93;;;2.17;;
12232;SDS011;6179;51.748;8.728;2023-08-30T09:58:53;5.40;;;2.20;;
12232;SDS011;6179;51.748;8.728;2023-08-30T10:04:54;2.50;;;1.97;;
12232;SDS011;6179;51.748;8.728;2023-08-30T10:10:57;2.33;;;1.20;;
12232;SDS011;6179;51.748;8.728;2023-08-30T10:17:01;3.27;;;1.10;;
12232;SDS011;6179;51.748;8.728;2023-08-30T10:23:03;1.60;;;1.30;;
12232;SDS011;6179;51.748;8.728;2023-08-30T10:29:04;1.20;;;1.10;;
12232;SDS011;6179;51.748;8.728;2023-08-30T10:35:10;3.83;;;1.30;;
12232;SDS011;6179;51.748;8.728;2023-08-30T10:41:24;1.83;;;0.90;;
12232;SDS011;6179;51.748;8.728;2023-08-30T10:47:27;2.40;;;0.90;;
12232;SDS011;6179;51.748;8.728;2023-08-30T10:53:30;2.30;;;1.10;;
12232;SDS011;6179;51.748;8.728;2023-08-30T10:59:31;2.73;;;1.30;;
12232;SDS011;6179;51.748;8.728;2023-08-30T11:05:32;8.90;;;1.27;;
12232;SDS011;6179;51.748;8.728;2023-08-30T11:11:33;6.03;;;1.10;;
12232;SDS011;6179;51.748;8.728;2023-08-30T11:17:37;2.73;;;1.00;;
12232;SDS011;6179;51.748;8.728;2023-08-30T11:23:39;2.30;;;1.20;;
12232;SDS011;6179;51.748;8.728;2023-08-30T11:29:40;8.60;;;3.03;;
12232;SDS011;6179;51.748;8.728;2023-08-30T11:35:41;1.30;;;1.20;;
12232;SDS011;6179;51.748;8.728;2023-08-30T11:41:42;3.53;;;1.43;;
12232;SDS011;6179;51.748;8.728;2023-08-30T11:47:43;12.43;;;1.43;;
12232;SDS011;6179;51.748;8.728;2023-08-30T11:53:45;6.70;;;1.30;;
12232;SDS011;6179;51.748;8.728;2023-08-30T11:59:47;4.37;;;1.50;;
12232;SDS011;6179;51.748;8.728;2023-08-30T12:05:49;1.10;;;0.90;;
12232;SDS011;6179;51.748;8.728;2023-08-30T12:11:50;5.87;;;1.53;;
12232;SDS011;6179;51.748;8.728;2023-08-30T12:17:51;5.53;;;1.40;;
12232;SDS011;6179;51.748;8.728;2023-08-30T12:23:59;2.93;;;1.00;;
12232;SDS011;6179;51.748;8.728;2023-08-30T12:30:03;6.33;;;1.67;;
12232;SDS011;6179;51.748;8.728;2023-08-30T12:36:06;2.10;;;0.80;;
12232;SDS011;6179;51.748;8.728;2023-08-30T12:42:07;1.83;;;1.03;;
12232;SDS011;6179;51.748;8.728;2023-08-30T13:01:34;3.67;;;1.37;;
12232;SDS011;6179;51.748;8.728;2023-08-30T13:07:35;2.97;;;1.80;;
12232;SDS011;6179;51.748;8.728;2023-08-30T13:13:36;10.33;;;1.40;;
12232;SDS011;6179;51.748;8.728;2023-08-30T13:19:37;3.30;;;1.70;;
12232;SDS011;6179;51.748;8.728;2023-08-30T13:25:38;5.93;;;1.73;;
12232;SDS011;6179;51.748;8.728;2023-08-30T13:31:40;4.23;;;3.23;;
12232;SDS011;6179;51.748;8.728;2023-08-30T13:37:41;7.30;;;2.63;;
12232;SDS011;6179;51.748;8.728;2023-08-30T13:43:42;7.23;;;4.00;;
12232;SDS011;6179;51.748;8.728;2023-08-30T13:49:42;10.73;;;4.30;;
12232;SDS011;6179;51.748;8.728;2023-08-30T13:55:46;19.93;;;4.57;;
12232;SDS011;6179;51.748;8.728;2023-08-30T14:01:48;9.30;;;4.10;;
12232;SDS011;6179;51.748;8.728;2023-08-30T14:07:49;6.93;;;4.40;;
12232;SDS011;6179;51.748;8.728;2023-08-30T14:13:51;7.03;;;5.03;;
12232;SDS011;6179;51.748;8.728;2023-08-30T14:19:52;8.37;;;5.20;;
12232;SDS011;6179;51.748;8.728;2023-08-30T14:25:56;8.57;;;5.73;;
12232;SDS011;6179;51.748;8.728;2023-08-30T14:32:12;9.67;;;5.80;;
12232;SDS011;6179;51.748;8.728;2023-08-30T14:38:13;13.43;;;6.60;;
12232;SDS011;6179;51.748;8.728;2023-08-30T14:44:14;8.17;;;5.97;;
12232;SDS011;6179;51.748;8.728;2023-08-30T14:50:15;16.50;;;7.17;;
12232;SDS011;6179;51.748;8.728;2023-08-30T14:56:16;11.20;;;7.27;;
12232;SDS011;6179;51.748;8.728;2023-08-30T15:02:17;8.67;;;6.03;;
12232;SDS011;6179;51.748;8.728;2023-08-30T15:08:18;8.87;;;6.13;;
12232;SDS011;6179;51.748;8.728;2023-08-30T15:14:19;5.80;;;5.23;;
12232;SDS011;6179;51.748;8.728;2023-08-30T15:20:19;8.30;;;5.30;;
12232;SDS011;6179;51.748;8.728;2023-08-30T15:26:20;5.53;;;3.67;;
12232;SDS011;6179;51.748;8.728;2023-08-30T15:32:21;8.23;;;4.10;;
12232;SDS011;6179;51.748;8.728;2023-08-30T15:38:23;6.90;;;3.67;;
12232;SDS011;6179;51.748;8.728;2023-08-30T15:44:23;7.20;;;4.73;;
12232;SDS011;6179;51.748;8.728;2023-08-30T15:50:24;7.70;;;5.30;;
12232;SDS011;6179;51.748;8.728;2023-08-30T15:56:25;11.03;;;6.37;;
12232;SDS011;6179;51.748;8.728;2023-08-30T16:02:26;5.23;;;3.67;;
12232;SDS011;6179;51.748;8.728;2023-08-30T16:08:26;9.20;;;4.50;;
12232;SDS011;6179;51.748;8.728;2023-08-30T16:14:28;4.10;;;3.03;;
12232;SDS011;6179;51.748;8.728;2023-08-30T16:20:29;4.23;;;3.10;;
12232;SDS011;6179;51.748;8.728;2023-08-30T16:26:31;5.30;;;3.97;;
12232;SDS011;6179;51.748;8.728;2023-08-30T16:32:32;6.70;;;4.83;;
12232;SDS011;6179;51.748;8.728;2023-08-30T16:38:34;7.63;;;4.63;;
12232;SDS011;6179;51.748;8.728;2023-08-30T16:44:36;7.00;;;6.30;;
12232;SDS011;6179;51.748;8.728;2023-08-30T16:50:37;8.77;;;4.13;;
12232;SDS011;6179;51.748;8.728;2023-08-30T16:56:38;6.07;;;3.90;;
12232;SDS011;6179;51.748;8.728;2023-08-30T17:02:38;6.07;;;3.20;;
12232;SDS011;6179;51.748;8.728;2023-08-30T17:08:40;8.40;;;3.27;;
12232;SDS011;6179;51.748;8.728;2023-08-30T17:14:42;6.87;;;3.13;;
12232;SDS011;6179;51.748;8.728;2023-08-30T17:20:43;4.87;;;2.20;;
12232;SDS011;6179;51.748;8.728;2023-08-30T17:26:43;8.67;;;2.10;;
12232;SDS011;6179;51.748;8.728;2023-08-30T17:32:44;8.10;;;1.27;;
12232;SDS011;6179;51.748;8.728;2023-08-30T17:38:46;5.67;;;1.73;;
12232;SDS011;6179;51.748;8.728;2023-08-30T17:44:47;2.07;;;1.80;;
12232;SDS011;6179;51.748;8.728;2023-08-30T17:50:48;2.60;;;1.80;;
12232;SDS011;6179;51.748;8.728;2023-08-30T17:56:48;5.90;;;1.83;;
12232;SDS011;6179;51.748;8.728;2023-08-30T18:02:49;5.47;;;2.20;;
12232;SDS011;6179;51.748;8.728;2023-08-30T18:08:50;2.90;;;1.60;;
12232;SDS011;6179;51.748;8.728;2023-08-30T18:14:51;2.30;;;1.80;;
12232;SDS011;6179;51.748;8.728;2023-08-30T18:20:52;6.67;;;1.83;;
12232;SDS011;6179;51.748;8.728;2023-08-30T18:26:52;2.60;;;1.40;;
12232;SDS011;6179;51.748;8.728;2023-08-30T18:32:53;1.57;;;1.47;;
12232;SDS011;6179;51.748;8.728;2023-08-30T18:38:56;1.17;;;1.03;;
12232;SDS011;6179;51.748;8.728;2023-08-30T18:44:56;3.87;;;1.77;;
12232;SDS011;6179;51.748;8.728;2023-08-30T18:50:57;1.40;;;1.30;;
12232;SDS011;6179;51.748;8.728;2023-08-30T18:56:58;1.80;;;1.33;;
12232;SDS011;6179;51.748;8.728;2023-08-30T19:02:59;1.90;;;1.53;;
12232;SDS011;6179;51.748;8.728;2023-08-30T19:09:00;5.70;;;1.20;;
12232;SDS011;6179;51.748;8.728;2023-08-30T19:15:01;1.47;;;1.37;;
12232;SDS011;6179;51.748;8.728;2023-08-30T19:21:02;8.00;;;1.00;;
12232;SDS011;6179;51.748;8.728;2023-08-30T19:27:04;1.97;;;1.60;;
12232;SDS011;6179;51.748;8.728;2023-08-30T19:33:06;1.27;;;0.90;;
12232;SDS011;6179;51.748;8.728;2023-08-30T19:39:06;2.80;;;2.13;;
12232;SDS011;6179;51.748;8.728;2023-08-30T19:45:08;1.77;;;1.00;;
12232;SDS011;6179;51.748;8.728;2023-08-30T19:51:09;1.90;;;1.10;;
12232;SDS011;6179;51.748;8.728;2023-08-30T19:57:10;2.13;;;1.27;;
12232;SDS011;6179;51.748;8.728;2023-08-30T20:03:10;2.33;;;1.47;;
12232;SDS011;6179;51.748;8.728;2023-08-30T20:09:11;2.50;;;1.87;;
12232;SDS011;6179;51.748;8.728;2023-08-30T20:15:12;3.40;;;1.57;;
12232;SDS011;6179;51.748;8.728;2023-08-30T20:21:13;5.60;;;2.10;;
12232;SDS011;6179;51.748;8.728;2023-08-30T20:27:13;5.00;;;3.00;;
12232;SDS011;6179;51.748;8.728;2023-08-30T20:33:14;4.33;;;2.80;;
12232;SDS011;6179;51.748;8.728;2023-08-30T20:39:15;4.50;;;2.83;;
12232;SDS011;6179;51.748;8.728;2023-08-30T20:45:16;5.80;;;3.30;;
12232;SDS011;6179;51.748;8.728;2023-08-30T20:51:17;5.30;;;3.43;;
12232;SDS011;6179;51.748;8.728;2023-08-30T20:57:19;7.27;;;3.20;;
12232;SDS011;6179;51.748;8.728;2023-08-30T21:03:20;5.53;;;3.13;;
12232;SDS011;6179;51.748;8.728;2023-08-30T21:09:21;8.10;;;4.97;;
12232;SDS011;6179;51.748;8.728;2023-08-30T21:15:21;5.47;;;4.97;;
12232;SDS011;6179;51.748;8.728;2023-08-30T21:21:22;30.73;;;5.70;;
12232;SDS011;6179;51.748;8.728;2023-08-30T21:27:23;7.87;;;5.13;;
12232;SDS011;6179;51.748;8.728;2023-08-30T21:33:24;9.80;;;4.60;;
12232;SDS011;6179;51.748;8.728;2023-08-30T21:39:25;10.97;;;4.83;;
12232;SDS011;6179;51.748;8.728;2023-08-30T21:45:26;7.63;;;5.10;;
12232;SDS011;6179;51.748;8.728;2023-08-30T21:51:27;10.60;;;5.83;;
12232;SDS011;6179;51.748;8.728;2023-08-30T21:57:30;17.57;;;6.60;;
12232;SDS011;6179;51.748;8.728;2023-08-30T22:03:31;20.47;;;6.93;;
12232;SDS011;6179;51.748;8.728;2023-08-30T22:09:32;22.03;;;8.93;;
12232;SDS011;6179;51.748;8.728;2023-08-30T22:15:33;13.53;;;6.23;;
12232;SDS011;6179;51.748;8.728;2023-08-30T22:21:34;20.40;;;7.13;;
12232;SDS011;6179;51.748;8.728;2023-08-30T22:27:35;17.73;;;6.70;;
12232;SDS011;6179;51.748;8.728;2023-08-30T22:33:36;11.53;;;5.87;;
12232;SDS011;6179;51.748;8.728;2023-08-30T22:39:37;11.40;;;4.80;;
12232;SDS011;6179;51.748;8.728;2023-08-30T22:45:38;12.80;;;6.90;;
12232;SDS011;6179;51.748;8.728;2023-08-30T22:51:38;9.93;;;4.83;;
12232;SDS011;6179;51.748;8.728;2023-08-30T22:57:39;11.00;;;5.73;;
12232;SDS011;6179;51.748;8.728;2023-08-30T23:03:40;20.47;;;7.40;;
12232;SDS011;6179;51.748;8.728;2023-08-30T23:09:41;13.30;;;7.60;;
12232;SDS011;6179;51.748;8.728;2023-08-30T23:15:41;30.00;;;7.50;;
12232;SDS011;6179;51.748;8.728;2023-08-30T23:21:42;25.43;;;6.90;;
12232;SDS011;6179;51.748;8.728;2023-08-30T23:27:44;10.57;;;5.00;;
12232;SDS011;6179;51.748;8.728;2023-08-30T23:33:45;10.50;;;3.87;;
12232;SDS011;6179;51.748;8.728;2023-08-30T23:39:48;8.23;;;5.37;;
12232;SDS011;6179;51.748;8.728;2023-08-30T23:45:49;4.97;;;4.30;;
12232;SDS011;6179;51.748;8.728;2023-08-30T23:51:52;22.03;;;5.47;;
12232;SDS011;6179;51.748;8.728;2023-08-30T23:57:53;7.03;;;4.60;;
